Time;durP1;ratioP1;P1;durP2;ratioP2;P2;SDS_P1;SDS_P2;PMS_P1;PMS_P2;Temp;Humidity;BMP_temperature;BMP_pressure;BME280_temperature;BME280_humidity;BME280_pressure;Samples;Min_cycle;Max_cycle;Signal;HPM_P1;HPM_P2
2023/06/09 00:02:11;;;;;;;9.97;7.17;;;21.10;92.10;;;;;;5052192;28;20203;-80
2023/06/09 00:04:39;;;;;;;8.67;6.77;;;21.00;92.00;;;;;;5039632;28;20204;-81
2023/06/09 00:07:06;;;;;;;7.93;5.90;;;21.00;92.10;;;;;;5023130;28;20593;-81
2023/06/09 00:09:34;;;;;;;8.03;6.43;;;21.00;92.20;;;;;;5022942;28;20272;-80
2023/06/09 00:12:02;;;;;;;7.77;6.37;;;21.00;92.20;;;;;;5070979;28;20282;-80
2023/06/09 00:14:29;;;;;;;8.00;5.90;;;20.90;92.30;;;;;;5027255;28;20256;-80
2023/06/09 00:16:59;;;;;;;8.90;6.43;;;20.90;92.40;;;;;;5054839;28;20215;-81
2023/06/09 00:19:27;;;;;;;7.73;6.83;;;20.90;92.30;;;;;;5068232;28;20247;-82
2023/06/09 00:21:54;;;;;;;6.83;6.23;;;20.90;92.30;;;;;;5017732;28;20249;-80
2023/06/09 00:24:23;;;;;;;6.50;5.90;;;20.90;92.40;;;;;;5052737;28;20211;-80
2023/06/09 00:26:51;;;;;;;11.10;6.40;;;20.90;92.50;;;;;;5048887;28;20194;-80
2023/06/09 00:29:22;;;;;;;8.00;6.40;;;20.90;92.40;;;;;;5055639;28;20220;-80
2023/06/09 00:31:50;;;;;;;7.77;6.50;;;20.80;92.40;;;;;;5055701;28;20281;-81
2023/06/09 00:34:17;;;;;;;7.83;6.57;;;20.80;92.50;;;;;;5041470;28;20227;-81
2023/06/09 00:36:44;;;;;;;8.67;6.60;;;20.80;92.50;;;;;;5044515;28;20260;-81
2023/06/09 00:39:12;;;;;;;6.30;5.80;;;20.80;92.50;;;;;;5040262;28;20228;-83
2023/06/09 00:41:40;;;;;;;7.63;6.60;;;20.70;92.60;;;;;;5050969;28;20214;-80
2023/06/09 00:44:09;;;;;;;10.30;6.63;;;20.70;92.70;;;;;;5029909;28;20218;-80
2023/06/09 00:46:37;;;;;;;8.10;6.80;;;20.70;92.70;;;;;;5039575;28;20218;-81
2023/06/09 00:49:05;;;;;;;10.93;6.17;;;20.70;92.80;;;;;;5039744;28;20639;-81
2023/06/09 00:51:35;;;;;;;6.40;5.63;;;20.70;92.80;;;;;;5029155;28;20275;-80
2023/06/09 00:54:04;;;;;;;7.57;5.50;;;20.70;92.80;;;;;;5047802;28;20215;-81
2023/06/09 00:56:32;;;;;;;5.30;4.80;;;20.70;92.80;;;;;;5052223;28;20210;-81
2023/06/09 00:59:00;;;;;;;11.87;5.03;;;20.70;92.80;;;;;;5023540;28;20223;-82
2023/06/09 01:01:32;;;;;;;9.43;4.87;;;20.70;92.90;;;;;;5046698;28;20202;-81
2023/06/09 01:04:00;;;;;;;7.07;5.30;;;20.70;92.90;;;;;;5056966;28;20200;-81
2023/06/09 01:06:47;;;;;;;5.63;4.80;;;20.70;92.90;;;;;;5058594;28;20214;-80
2023/06/09 01:09:27;;;;;;;5.63;4.93;;;20.70;92.90;;;;;;5025731;28;20202;-81
2023/06/09 01:12:15;;;;;;;5.73;4.50;;;20.70;93.10;;;;;;5040083;28;20206;-81
2023/06/09 01:14:53;;;;;;;7.73;4.97;;;20.70;92.80;;;;;;5052448;28;20300;-81
2023/06/09 01:17:23;;;;;;;8.30;5.17;;;20.70;92.80;;;;;;5040695;28;20259;-81
2023/06/09 01:19:58;;;;;;;6.13;4.77;;;20.70;92.80;;;;;;5049775;28;20202;-81
2023/06/09 01:22:34;;;;;;;5.73;5.13;;;20.60;92.90;;;;;;5051874;28;20234;-80
2023/06/09 01:25:34;;;;;;;5.40;4.90;;;20.60;92.90;;;;;;5026254;28;20214;-81
2023/06/09 01:28:14;;;;;;;6.20;4.97;;;20.60;92.90;;;;;;5051072;28;20195;-81
2023/06/09 01:30:43;;;;;;;8.20;5.07;;;20.50;92.90;;;;;;5038773;28;20230;-81
2023/06/09 01:33:15;;;;;;;5.97;5.17;;;20.50;92.90;;;;;;5080946;28;20619;-81
2023/06/09 01:35:43;;;;;;;6.07;4.67;;;20.50;92.90;;;;;;5054465;28;20589;-81
2023/06/09 01:38:12;;;;;;;9.67;5.90;;;20.50;92.90;;;;;;5072329;23;20316;-80
2023/06/09 01:40:39;;;;;;;7.47;5.10;;;20.50;93.00;;;;;;5036307;28;20258;-80
2023/06/09 01:43:07;;;;;;;5.73;5.23;;;20.40;93.00;;;;;;5047919;28;20266;-80
2023/06/09 01:45:36;;;;;;;7.30;5.70;;;20.40;93.00;;;;;;5069770;28;20199;-80
2023/06/09 01:48:08;;;;;;;10.50;5.17;;;20.40;93.00;;;;;;5019156;28;20294;-81
2023/06/09 01:50:52;;;;;;;8.90;5.87;;;20.40;93.00;;;;;;5047984;28;20269;-80
2023/06/09 01:53:30;;;;;;;9.07;6.03;;;20.40;93.00;;;;;;5034358;28;20303;-80
2023/06/09 01:56:22;;;;;;;10.83;5.77;;;20.30;93.00;;;;;;5034130;28;20223;-80
2023/06/09 01:58:57;;;;;;;10.27;4.87;;;20.30;93.00;;;;;;5023832;28;20219;-80
2023/06/09 02:01:26;;;;;;;8.20;5.77;;;20.20;92.60;;;;;;5045976;28;20559;-79
2023/06/09 02:03:55;;;;;;;8.60;6.07;;;20.10;92.30;;;;;;5037034;28;20202;-80
2023/06/09 02:06:23;;;;;;;7.90;6.67;;;20.10;92.60;;;;;;5050592;28;20411;-79
2023/06/09 02:08:50;;;;;;;9.67;6.50;;;19.90;93.00;;;;;;5047744;28;20210;-80
2023/06/09 02:11:18;;;;;;;9.83;7.50;;;19.90;93.30;;;;;;5020919;28;20217;-81
2023/06/09 02:13:53;;;;;;;12.63;8.20;;;19.90;93.50;;;;;;5043567;28;20204;-80
2023/06/09 02:16:22;;;;;;;12.03;8.07;;;19.80;93.60;;;;;;5032216;28;20213;-80
2023/06/09 02:18:53;;;;;;;11.70;8.00;;;19.80;93.70;;;;;;5031772;28;20673;-80
2023/06/09 02:21:20;;;;;;;12.37;8.60;;;19.90;93.80;;;;;;5045356;28;20230;-81
2023/06/09 02:23:47;;;;;;;13.43;8.17;;;19.90;93.90;;;;;;5037151;28;20199;-80
2023/06/09 02:26:15;;;;;;;9.90;8.90;;;19.90;93.90;;;;;;5065922;28;20653;-79
2023/06/09 02:28:42;;;;;;;12.63;9.10;;;19.90;93.90;;;;;;5023192;28;20268;-80
2023/06/09 02:31:09;;;;;;;14.53;9.10;;;19.90;93.90;;;;;;5031979;28;20234;-80
2023/06/09 02:33:37;;;;;;;10.80;8.87;;;19.90;93.90;;;;;;5035129;28;20298;-81
2023/06/09 02:36:04;;;;;;;10.03;8.57;;;19.90;93.80;;;;;;5049726;28;20268;-81
2023/06/09 02:38:31;;;;;;;11.20;8.53;;;20.00;93.80;;;;;;5045828;28;20322;-80
2023/06/09 02:40:59;;;;;;;15.97;8.87;;;19.90;93.80;;;;;;5050377;28;20707;-81
2023/06/09 02:43:26;;;;;;;13.10;8.10;;;19.90;93.80;;;;;;5019399;28;20204;-81
2023/06/09 02:45:53;;;;;;;12.30;9.03;;;19.90;93.70;;;;;;5043052;28;20199;-81
2023/06/09 02:48:21;;;;;;;9.63;8.63;;;19.90;93.70;;;;;;5030367;28;20253;-81
2023/06/09 02:50:48;;;;;;;10.30;8.00;;;19.90;93.70;;;;;;5027026;28;20241;-81
2023/06/09 02:53:17;;;;;;;8.57;7.73;;;19.80;93.70;;;;;;5035872;28;20199;-81
2023/06/09 02:55:45;;;;;;;14.87;7.50;;;19.80;93.70;;;;;;5052390;28;20199;-81
2023/06/09 02:58:24;;;;;;;13.27;8.33;;;19.80;93.70;;;;;;5054125;28;20226;-80
2023/06/09 03:00:53;;;;;;;12.10;8.43;;;19.80;93.70;;;;;;5052814;28;20650;-81
2023/06/09 03:03:22;;;;;;;16.70;8.97;;;19.70;93.70;;;;;;5049876;28;20257;-81
2023/06/09 03:05:52;;;;;;;9.03;7.70;;;19.80;93.80;;;;;;5052536;28;20207;-81
2023/06/09 03:08:19;;;;;;;12.40;9.13;;;19.70;93.70;;;;;;5049359;28;20207;-81
2023/06/09 03:10:47;;;;;;;9.10;7.50;;;19.70;93.70;;;;;;5049254;28;20213;-80
2023/06/09 03:13:16;;;;;;;8.50;7.70;;;19.60;93.70;;;;;;5051936;28;20207;-81
2023/06/09 03:15:50;;;;;;;14.13;8.27;;;19.60;93.80;;;;;;5020395;28;20218;-81
2023/06/09 03:18:19;;;;;;;9.27;8.03;;;19.60;93.70;;;;;;5046993;28;20241;-81
2023/06/09 03:20:48;;;;;;;12.67;8.13;;;19.60;93.80;;;;;;5064792;28;20218;-80
2023/06/09 03:23:17;;;;;;;10.13;8.07;;;19.50;93.80;;;;;;5026669;28;20243;-81
2023/06/09 03:25:45;;;;;;;11.07;7.57;;;19.50;93.80;;;;;;5054125;28;20281;-81
2023/06/09 03:28:16;;;;;;;9.57;8.57;;;19.50;93.90;;;;;;5022977;28;20195;-80
2023/06/09 03:30:43;;;;;;;9.97;8.83;;;19.50;94.00;;;;;;5034015;28;20644;-80
2023/06/09 03:33:26;;;;;;;10.97;7.60;;;19.50;94.00;;;;;;5019447;28;20199;-81
2023/06/09 03:35:56;;;;;;;9.17;8.13;;;19.50;94.10;;;;;;5045848;28;20577;-81
2023/06/09 03:38:31;;;;;;;13.67;7.70;;;19.50;94.10;;;;;;5033825;28;20734;-81
2023/06/09 03:41:00;;;;;;;11.53;8.90;;;19.50;94.20;;;;;;5042688;28;20230;-81
2023/06/09 03:43:39;;;;;;;13.43;8.70;;;19.50;94.30;;;;;;5045123;28;20301;-81
2023/06/09 03:46:29;;;;;;;8.57;7.50;;;19.50;94.30;;;;;;5053355;28;20210;-81
2023/06/09 03:49:14;;;;;;;;;;;;;;;;;;;;;
2023/06/09 03:51:52;;;;;;;10.03;7.90;;;19.50;94.30;;;;;;5034085;28;20579;-81
2023/06/09 03:54:19;;;;;;;8.60;7.80;;;19.50;94.30;;;;;;5014146;28;20221;-81
2023/06/09 03:56:50;;;;;;;10.17;7.90;;;19.50;94.30;;;;;;5029450;28;20264;-82
2023/06/09 03:59:21;;;;;;;9.10;7.43;;;19.50;94.30;;;;;;5032465;28;20228;-81
2023/06/09 04:02:00;;;;;;;10.73;7.27;;;19.50;94.40;;;;;;5049493;28;20206;-80
2023/06/09 04:04:41;;;;;;;9.80;7.60;;;19.50;94.40;;;;;;5036668;28;20199;-81
2023/06/09 04:07:34;;;;;;;10.17;7.13;;;19.60;94.40;;;;;;5045812;28;20209;-81
2023/06/09 04:10:20;;;;;;;11.03;7.80;;;19.60;94.40;;;;;;5053055;28;20202;-81
2023/06/09 04:13:05;;;;;;;9.33;7.97;;;19.60;94.40;;;;;;5035748;28;20591;-81
2023/06/09 04:15:48;;;;;;;14.23;8.07;;;19.60;94.40;;;;;;5049766;28;20207;-80
2023/06/09 04:18:26;;;;;;;8.47;7.40;;;19.70;94.50;;;;;;5034313;28;20206;-81
2023/06/09 04:21:27;;;;;;;7.63;6.83;;;19.70;94.40;;;;;;5026547;28;20580;-81
2023/06/09 04:24:08;;;;;;;9.70;6.83;;;19.80;94.40;;;;;;5027268;28;20513;-80
2023/06/09 04:26:49;;;;;;;8.90;7.27;;;19.80;94.40;;;;;;5018658;28;20507;-81
2023/06/09 04:29:49;;;;;;;10.53;6.23;;;19.90;94.40;;;;;;5044846;28;20212;-81
2023/06/09 04:32:25;;;;;;;9.43;6.70;;;19.90;94.30;;;;;;5020059;28;20310;-81
2023/06/09 04:38:06;;;;;;;7.30;6.43;;;20.10;94.20;;;;;;5054441;28;20235;-80
2023/06/09 04:40:45;;;;;;;7.00;6.10;;;20.10;94.20;;;;;;5019962;28;20576;-81
2023/06/09 04:43:44;;;;;;;8.30;5.90;;;20.20;94.10;;;;;;5014145;28;20276;-80
2023/06/09 04:46:42;;;;;;;8.77;5.83;;;20.20;94.00;;;;;;5080712;28;20582;-65
2023/06/09 04:49:13;;;;;;;8.53;5.93;;;20.30;93.90;;;;;;5068637;28;20233;-64
2023/06/09 04:51:49;;;;;;;6.57;5.43;;;20.40;93.80;;;;;;5077464;28;20211;-65
2023/06/09 04:54:25;;;;;;;7.70;5.90;;;20.50;93.70;;;;;;5063016;28;20284;-64
2023/06/09 04:56:57;;;;;;;8.07;6.27;;;20.50;93.60;;;;;;5062840;28;20299;-65
2023/06/09 04:59:25;;;;;;;8.90;6.50;;;20.60;93.50;;;;;;5069448;28;20205;-65
2023/06/09 05:01:53;;;;;;;14.30;6.27;;;20.70;93.40;;;;;;5062949;28;20248;-64
2023/06/09 05:04:21;;;;;;;7.13;6.53;;;20.70;93.30;;;;;;5061905;28;20225;-64
2023/06/09 05:06:48;;;;;;;7.80;6.40;;;20.80;93.20;;;;;;5062026;28;20243;-65
2023/06/09 05:09:15;;;;;;;8.20;7.40;;;20.90;93.20;;;;;;5061486;28;20209;-65
2023/06/09 05:11:43;;;;;;;7.73;7.03;;;21.00;93.20;;;;;;5063480;28;20216;-65
2023/06/09 05:14:11;;;;;;;11.20;7.13;;;21.10;93.00;;;;;;5077799;28;20209;-65
2023/06/09 05:16:38;;;;;;;9.70;7.20;;;21.20;92.70;;;;;;5068443;28;20194;-65
2023/06/09 05:19:07;;;;;;;11.90;7.83;;;21.30;92.50;;;;;;5064199;28;20213;-65
2023/06/09 05:21:36;;;;;;;11.80;7.30;;;21.50;92.30;;;;;;5059745;28;20230;-65
2023/06/09 05:24:04;;;;;;;8.63;6.90;;;21.70;91.70;;;;;;5061398;28;20650;-65
2023/06/09 05:26:32;;;;;;;9.83;7.27;;;21.80;91.20;;;;;;5064360;28;20213;-65
2023/06/09 05:28:59;;;;;;;11.40;7.53;;;21.90;91.10;;;;;;5076249;28;20227;-64
2023/06/09 05:31:27;;;;;;;11.53;7.87;;;22.00;91.00;;;;;;5059764;28;20205;-64
2023/06/09 05:33:54;;;;;;;8.43;7.50;;;22.10;90.90;;;;;;5062737;28;20609;-65
2023/06/09 05:36:21;;;;;;;8.97;8.10;;;22.20;90.90;;;;;;5066662;28;20603;-65
2023/06/09 05:38:51;;;;;;;11.67;9.77;;;22.30;90.80;;;;;;5071921;28;20206;-65
2023/06/09 05:41:18;;;;;;;12.60;9.93;;;22.50;90.60;;;;;;5075167;28;20281;-64
2023/06/09 05:43:45;;;;;;;10.57;9.47;;;22.60;90.30;;;;;;5078259;28;20233;-66
2023/06/09 05:46:12;;;;;;;13.40;10.43;;;22.70;90.10;;;;;;5073724;28;20246;-66
2023/06/09 05:48:39;;;;;;;11.17;10.10;;;22.70;90.10;;;;;;5074479;28;20206;-65
2023/06/09 05:51:06;;;;;;;14.23;11.90;;;22.80;90.10;;;;;;5076338;28;20571;-66
2023/06/09 05:53:34;;;;;;;13.73;11.60;;;22.80;90.10;;;;;;5076442;28;20298;-65
2023/06/09 05:56:02;;;;;;;14.03;11.80;;;22.90;90.00;;;;;;5076459;28;20676;-65
2023/06/09 05:58:33;;;;;;;14.27;12.93;;;23.00;89.80;;;;;;5065709;28;20224;-65
2023/06/09 06:01:03;;;;;;;14.27;12.83;;;23.10;89.80;;;;;;5057113;28;20208;-65
2023/06/09 06:03:32;;;;;;;18.90;14.00;;;23.20;89.60;;;;;;5057471;28;20220;-65
2023/06/09 06:06:00;;;;;;;17.67;14.63;;;23.40;89.60;;;;;;5065739;28;20233;-65
2023/06/09 06:08:27;;;;;;;16.93;15.00;;;23.50;89.30;;;;;;5045307;28;20194;-65
2023/06/09 06:10:54;;;;;;;16.30;14.70;;;23.70;88.80;;;;;;5060525;28;20584;-66
2023/06/09 06:13:21;;;;;;;15.80;13.80;;;23.80;88.60;;;;;;5063440;28;20546;-65
2023/06/09 06:15:48;;;;;;;17.50;14.77;;;23.90;88.30;;;;;;5062694;28;20206;-65
2023/06/09 06:18:16;;;;;;;18.87;14.53;;;24.10;88.10;;;;;;5061511;28;20199;-65
2023/06/09 06:20:43;;;;;;;16.53;14.60;;;24.20;87.60;;;;;;5062350;28;20267;-66
2023/06/09 06:23:11;;;;;;;17.40;14.47;;;24.40;87.30;;;;;;5058170;28;20556;-65
2023/06/09 06:25:41;;;;;;;110.97;23.67;;;24.50;86.60;;;;;;5062465;28;20218;-65
2023/06/09 06:28:10;;;;;;;28.63;16.40;;;24.60;86.80;;;;;;5062457;28;20197;-65
2023/06/09 06:30:37;;;;;;;16.73;13.50;;;24.80;86.70;;;;;;5059707;28;20281;-65
2023/06/09 06:33:04;;;;;;;15.77;14.17;;;24.90;86.30;;;;;;5059183;28;20285;-65
2023/06/09 06:35:32;;;;;;;16.73;14.10;;;25.00;86.00;;;;;;5066778;28;20287;-65
2023/06/09 06:37:59;;;;;;;19.20;15.73;;;25.00;85.80;;;;;;5061309;28;20234;-66
2023/06/09 06:40:27;;;;;;;15.47;14.03;;;25.00;85.50;;;;;;5060895;28;20666;-65
2023/06/09 06:42:55;;;;;;;15.63;14.03;;;25.10;85.20;;;;;;5060574;28;20195;-65
2023/06/09 06:45:44;;;;;;;17.30;15.03;;;25.10;85.00;;;;;;5048798;28;20252;-65
2023/06/09 06:48:11;;;;;;;16.57;14.77;;;25.20;84.60;;;;;;5061586;28;20225;-65
2023/06/09 06:50:40;;;;;;;16.93;15.23;;;25.20;84.30;;;;;;5060895;28;20288;-65
2023/06/09 06:53:10;;;;;;;17.40;15.50;;;25.30;83.40;;;;;;5058055;28;20249;-66
2023/06/09 06:55:37;;;;;;;18.87;15.57;;;25.40;83.20;;;;;;5061454;28;20214;-65
2023/06/09 06:58:04;;;;;;;17.67;15.97;;;25.40;83.20;;;;;;5063799;28;20232;-65
2023/06/09 07:00:31;;;;;;;19.63;16.53;;;25.30;83.20;;;;;;5061318;28;20196;-65
2023/06/09 07:02:59;;;;;;;18.60;16.30;;;25.30;82.90;;;;;;5060566;28;20195;-65
2023/06/09 07:05:26;;;;;;;18.63;16.73;;;25.20;83.10;;;;;;5063218;28;20291;-66
2023/06/09 07:07:53;;;;;;;19.00;17.17;;;25.20;82.20;;;;;;5058067;28;20206;-66
2023/06/09 07:10:20;;;;;;;19.40;16.23;;;25.20;81.80;;;;;;5058036;28;20199;-65
2023/06/09 07:12:47;;;;;;;21.07;16.77;;;25.30;82.40;;;;;;5061788;28;20678;-65
2023/06/09 07:15:14;;;;;;;20.27;18.27;;;25.40;82.80;;;;;;5056777;28;20195;-66
2023/06/09 07:17:41;;;;;;;19.57;17.33;;;25.50;82.50;;;;;;5061101;28;20815;-65
2023/06/09 07:20:10;;;;;;;22.10;16.47;;;25.50;81.60;;;;;;5046261;28;20204;-65
2023/06/09 07:22:41;;;;;;;17.23;15.53;;;25.50;81.30;;;;;;5061658;28;20198;-65
2023/06/09 07:25:09;;;;;;;17.73;15.90;;;25.60;81.90;;;;;;5057399;28;20208;-66
2023/06/09 07:27:36;;;;;;;17.90;16.20;;;25.70;81.80;;;;;;5058666;28;20713;-65
2023/06/09 07:30:04;;;;;;;15.67;14.13;;;25.90;81.50;;;;;;5057922;28;20348;-66
2023/06/09 07:32:31;;;;;;;14.20;12.70;;;26.10;80.20;;;;;;5059050;28;20290;-64
2023/06/09 07:34:59;;;;;;;15.20;13.60;;;26.20;79.40;;;;;;5062940;28;20557;-66
2023/06/09 07:37:27;;;;;;;15.77;14.07;;;26.40;78.70;;;;;;5058211;28;20274;-66
2023/06/09 07:39:54;;;;;;;16.47;13.33;;;26.50;78.10;;;;;;5061370;28;20245;-65
2023/06/09 07:42:39;;;;;;;19.10;13.80;;;26.60;78.40;;;;;;5061084;28;20277;-65
2023/06/09 07:45:07;;;;;;;15.13;13.27;;;26.80;78.50;;;;;;5059802;28;20245;-66
2023/06/09 07:47:35;;;;;;;14.77;13.27;;;27.00;77.70;;;;;;5060015;28;20192;-65
2023/06/09 07:50:03;;;;;;;12.83;11.53;;;27.20;77.50;;;;;;5062328;28;20232;-66
2023/06/09 07:52:32;;;;;;;13.53;11.40;;;27.30;76.30;;;;;;5057295;28;20661;-67
2023/06/09 07:54:59;;;;;;;11.63;9.77;;;27.40;75.00;;;;;;5061499;28;20198;-65
2023/06/09 07:57:26;;;;;;;13.43;11.60;;;27.40;72.30;;;;;;5059523;28;20203;-65
2023/06/09 07:59:53;;;;;;;12.30;11.10;;;27.40;72.40;;;;;;5059132;28;20209;-66
2023/06/09 08:02:20;;;;;;;13.53;12.07;;;27.30;73.30;;;;;;5058960;28;20194;-65
2023/06/09 08:04:47;;;;;;;14.63;11.33;;;27.40;74.20;;;;;;5063987;28;20201;-65
2023/06/09 08:07:14;;;;;;;14.40;11.03;;;27.40;73.10;;;;;;5055748;28;20225;-66
2023/06/09 08:09:41;;;;;;;18.67;13.03;;;27.50;72.70;;;;;;5060866;28;20194;-64
2023/06/09 08:12:08;;;;;;;15.57;11.77;;;27.70;72.20;;;;;;5060166;28;20204;-66
2023/06/09 08:14:35;;;;;;;12.47;11.30;;;27.80;72.60;;;;;;5059926;28;20226;-67
2023/06/09 08:17:03;;;;;;;12.70;11.50;;;27.90;72.20;;;;;;5063738;28;20210;-64
2023/06/09 08:19:30;;;;;;;11.20;10.10;;;28.00;71.50;;;;;;5056178;28;20208;-63
2023/06/09 08:21:57;;;;;;;14.37;12.97;;;28.10;71.60;;;;;;5056403;28;20643;-64
2023/06/09 08:24:25;;;;;;;20.50;13.13;;;28.10;71.80;;;;;;5059265;28;20202;-67
2023/06/09 08:26:52;;;;;;;14.67;12.30;;;28.10;72.30;;;;;;5058560;28;20238;-66
2023/06/09 08:29:20;;;;;;;20.13;12.93;;;28.10;72.40;;;;;;5058245;28;20201;-65
2023/06/09 08:31:47;;;;;;;15.17;12.60;;;28.10;71.70;;;;;;5061881;28;20634;-68
2023/06/09 08:34:14;;;;;;;13.73;12.40;;;28.10;72.40;;;;;;5059876;28;20612;-68
2023/06/09 08:36:42;;;;;;;14.23;12.83;;;28.10;72.50;;;;;;5059230;28;20700;-64
2023/06/09 08:39:09;;;;;;;16.00;14.13;;;28.10;72.80;;;;;;5062744;28;20198;-65
2023/06/09 08:41:38;;;;;;;15.53;12.87;;;28.20;72.70;;;;;;5056709;28;20209;-65
2023/06/09 08:44:05;;;;;;;17.07;13.83;;;28.20;72.90;;;;;;5056012;28;20711;-67
2023/06/09 08:46:36;;;;;;;15.33;13.83;;;28.30;73.60;;;;;;5061238;28;20265;-67
2023/06/09 08:49:03;;;;;;;12.73;11.53;;;28.40;72.80;;;;;;5057169;28;20209;-65
2023/06/09 08:51:31;;;;;;;12.53;11.33;;;28.50;72.50;;;;;;5057282;28;20691;-64
2023/06/09 08:54:00;;;;;;;13.33;11.67;;;28.60;72.20;;;;;;5063360;28;20201;-67
2023/06/09 08:56:28;;;;;;;12.13;10.90;;;28.60;71.10;;;;;;5060362;28;20195;-64
2023/06/09 08:58:56;;;;;;;12.37;11.17;;;28.60;70.40;;;;;;5056238;28;20652;-67
2023/06/09 09:01:23;;;;;;;13.60;12.17;;;28.60;70.00;;;;;;5060864;28;20609;-65
2023/06/09 09:03:50;;;;;;;11.63;10.63;;;28.60;69.30;;;;;;5053850;28;20201;-64
2023/06/09 09:06:19;;;;;;;13.30;11.90;;;28.60;70.00;;;;;;5056607;28;20297;-65
2023/06/09 09:08:46;;;;;;;14.07;11.90;;;28.60;69.90;;;;;;5059415;28;20202;-65
2023/06/09 09:11:14;;;;;;;12.93;11.63;;;28.70;69.80;;;;;;5057455;28;20252;-65
2023/06/09 09:13:41;;;;;;;11.90;10.60;;;28.70;69.40;;;;;;5056999;28;20202;-64
2023/06/09 09:16:15;;;;;;;11.63;9.50;;;28.70;69.50;;;;;;5057650;28;20209;-65
2023/06/09 09:18:47;;;;;;;10.67;9.57;;;28.80;69.60;;;;;;5056242;28;20214;-64
2023/06/09 09:21:24;;;;;;;11.23;9.70;;;28.80;68.40;;;;;;5058844;28;20210;-65
2023/06/09 09:23:56;;;;;;;14.10;11.67;;;28.70;67.50;;;;;;5060616;28;20293;-65
2023/06/09 09:26:28;;;;;;;11.57;10.23;;;28.70;67.90;;;;;;5061571;28;21470;-65
2023/06/09 09:28:59;;;;;;;10.40;8.93;;;28.70;66.70;;;;;;5060353;28;20198;-64
2023/06/09 09:31:32;;;;;;;13.73;8.10;;;28.60;66.00;;;;;;5064269;28;20186;-65
2023/06/09 09:34:00;;;;;;;9.10;8.20;;;28.70;67.90;;;;;;5063331;28;20218;-63
2023/06/09 09:36:27;;;;;;;9.33;7.20;;;28.80;68.70;;;;;;5064637;28;20202;-64
2023/06/09 09:38:56;;;;;;;7.10;6.30;;;29.00;68.20;;;;;;5063706;28;20199;-64
2023/06/09 09:41:23;;;;;;;8.57;7.60;;;29.10;66.30;;;;;;5058982;28;20592;-64
2023/06/09 09:43:56;;;;;;;9.47;8.47;;;29.30;65.60;;;;;;5063400;28;20291;-65
2023/06/09 09:46:23;;;;;;;9.77;8.40;;;29.40;66.00;;;;;;5059249;28;20237;-65
2023/06/09 09:48:51;;;;;;;10.60;8.47;;;29.70;65.10;;;;;;5057479;28;20199;-65
2023/06/09 09:51:20;;;;;;;8.47;7.40;;;29.90;64.40;;;;;;5067143;28;20190;-66
2023/06/09 09:53:50;;;;;;;7.90;7.10;;;30.10;64.80;;;;;;5058358;28;20202;-66
2023/06/09 09:56:22;;;;;;;8.80;7.93;;;30.40;64.80;;;;;;5059084;28;20541;-66
2023/06/09 09:58:53;;;;;;;9.60;8.63;;;30.60;64.60;;;;;;5062037;28;20527;-64
2023/06/09 10:01:24;;;;;;;9.00;8.10;;;30.80;64.50;;;;;;5063282;28;20229;-65
2023/06/09 10:03:55;;;;;;;11.63;9.07;;;31.00;63.70;;;;;;5059634;28;20223;-64
2023/06/09 10:06:27;;;;;;;8.50;7.63;;;31.10;62.00;;;;;;5067395;28;20255;-63
2023/06/09 10:08:57;;;;;;;9.27;6.70;;;31.10;62.30;;;;;;5049054;28;20195;-65
2023/06/09 10:11:30;;;;;;;8.43;7.43;;;31.20;63.00;;;;;;5061213;28;20247;-66
2023/06/09 10:13:59;;;;;;;7.57;6.77;;;31.20;62.80;;;;;;5065846;28;20573;-65
2023/06/09 10:16:28;;;;;;;8.13;7.33;;;31.40;63.30;;;;;;5060869;28;20289;-64
2023/06/09 10:18:56;;;;;;;7.60;6.30;;;31.50;63.10;;;;;;5062559;28;20218;-65
2023/06/09 10:21:26;;;;;;;6.93;6.23;;;31.70;62.90;;;;;;5066515;28;20198;-66
2023/06/09 10:23:53;;;;;;;9.33;7.43;;;31.80;61.60;;;;;;5057342;28;20206;-64
2023/06/09 10:26:22;;;;;;;7.33;6.27;;;31.90;60.10;;;;;;5062684;28;20541;-63
2023/06/09 10:28:49;;;;;;;6.17;5.60;;;31.90;59.60;;;;;;5065022;28;20198;-64
2023/06/09 10:31:18;;;;;;;4.80;4.30;;;32.00;58.70;;;;;;5057345;28;20191;-67
2023/06/09 10:33:46;;;;;;;6.60;4.90;;;32.00;57.60;;;;;;5058856;28;20229;-65
2023/06/09 10:36:14;;;;;;;4.63;4.23;;;32.00;57.10;;;;;;5066504;28;20209;-64
2023/06/09 10:38:47;;;;;;;5.30;4.80;;;32.00;56.70;;;;;;5062393;28;20198;-64
2023/06/09 10:41:40;;;;;;;4.80;4.17;;;32.00;55.40;;;;;;5061005;28;20198;-67
2023/06/09 10:44:29;;;;;;;6.87;4.90;;;32.00;57.20;;;;;;5054829;28;20677;-65
2023/06/09 10:47:47;;;;;;;6.77;4.30;;;32.00;55.30;;;;;;5061141;28;20233;-68
2023/06/09 10:50:25;;;;;;;5.60;4.10;;;32.00;55.60;;;;;;5152551;22;20220;-80
2023/06/09 10:52:54;;;;;;;5.60;4.40;;;31.90;55.30;;;;;;4997620;28;20209;-79
2023/06/09 10:55:24;;;;;;;5.03;4.20;;;31.80;56.00;;;;;;5010149;28;20279;-82
2023/06/09 10:57:52;;;;;;;4.60;3.90;;;31.80;56.30;;;;;;5002412;28;20620;-80
2023/06/09 11:00:19;;;;;;;4.93;3.60;;;31.80;54.50;;;;;;4990343;28;20532;-79
2023/06/09 11:02:52;;;;;;;6.47;3.93;;;31.80;55.10;;;;;;4996397;28;20215;-79
2023/06/09 11:05:21;;;;;;;4.50;4.10;;;31.70;55.80;;;;;;4995348;28;20207;-80
2023/06/09 11:08:02;;;;;;;4.43;3.87;;;31.80;55.40;;;;;;4982971;28;20220;-80
2023/06/09 11:10:29;;;;;;;12.30;4.37;;;31.80;55.90;;;;;;4994556;28;20212;-80
2023/06/09 11:12:57;;;;;;;4.33;4.03;;;31.90;57.10;;;;;;4988089;28;20216;-80
2023/06/09 11:15:57;;;;;;;7.40;4.80;;;32.00;57.30;;;;;;5018881;28;20196;-80
2023/06/09 11:18:25;;;;;;;4.60;4.20;;;32.20;53.00;;;;;;5010713;28;20196;-79
2023/06/09 11:21:16;;;;;;;6.30;5.57;;;32.10;53.30;;;;;;4994021;28;20290;-81
2023/06/09 11:24:00;;;;;;;5.00;4.40;;;32.00;55.20;;;;;;5008479;28;20188;-79
2023/06/09 11:26:29;;;;;;;4.90;4.27;;;31.90;55.20;;;;;;5015228;28;20252;-79
2023/06/09 11:28:56;;;;;;;4.53;4.13;;;31.90;56.00;;;;;;5002179;28;20208;-80
2023/06/09 11:31:23;;;;;;;6.43;4.37;;;32.00;55.30;;;;;;4997727;28;20200;-79
2023/06/09 11:33:56;;;;;;;4.20;3.80;;;32.00;55.80;;;;;;5001709;28;20200;-81
2023/06/09 11:36:27;;;;;;;5.37;4.40;;;32.20;56.70;;;;;;5004045;28;20215;-77
2023/06/09 11:39:01;;;;;;;4.30;3.90;;;32.20;56.20;;;;;;4983040;28;20250;-82
2023/06/09 11:41:29;;;;;;;4.63;4.23;;;32.00;57.70;;;;;;5001156;28;20211;-80
2023/06/09 11:43:57;;;;;;;4.90;4.07;;;31.70;58.20;;;;;;5001402;28;20208;-79
2023/06/09 11:46:25;;;;;;;7.07;4.37;;;31.40;58.10;;;;;;4975439;28;20530;-80
2023/06/09 11:49:11;;;;;;;4.20;3.90;;;31.20;58.30;;;;;;4982371;28;20287;-80
2023/06/09 11:51:56;;;;;;;4.53;4.13;;;31.10;58.30;;;;;;4994369;28;20239;-80
2023/06/09 11:54:48;;;;;;;4.63;4.23;;;31.10;57.30;;;;;;5011818;28;20203;-80
2023/06/09 11:57:49;;;;;;;5.63;4.00;;;31.20;57.20;;;;;;4992011;28;20670;-80
2023/06/09 12:00:53;;;;;;;4.47;4.10;;;31.30;56.80;;;;;;5002281;28;20520;-79
2023/06/09 12:03:21;;;;;;;5.10;4.70;;;31.50;57.00;;;;;;4999463;28;20200;-79
2023/06/09 12:05:50;;;;;;;4.40;3.93;;;31.40;56.00;;;;;;4999875;28;20230;-79
2023/06/09 12:08:18;;;;;;;4.70;4.30;;;31.20;57.90;;;;;;5014622;28;20212;-80
2023/06/09 12:11:00;;;;;;;5.90;4.23;;;31.20;57.50;;;;;;5014420;28;20699;-79
2023/06/09 12:13:28;;;;;;;4.50;4.10;;;31.30;57.10;;;;;;5010247;28;20315;-80
2023/06/09 12:15:56;;;;;;;5.23;4.10;;;31.40;58.00;;;;;;4999921;28;20235;-79
2023/06/09 12:18:23;;;;;;;4.80;4.37;;;31.50;58.50;;;;;;4983303;28;20220;-79
2023/06/09 12:20:53;;;;;;;4.30;3.90;;;31.70;57.30;;;;;;5005595;28;20200;-78
2023/06/09 12:23:27;;;;;;;5.90;4.20;;;31.80;56.80;;;;;;4998473;28;20273;-83
2023/06/09 12:25:54;;;;;;;4.33;3.87;;;31.80;56.30;;;;;;4998633;28;20219;-78
2023/06/09 12:28:26;;;;;;;3.80;3.50;;;31.80;55.90;;;;;;4985741;28;20262;-79
2023/06/09 12:30:55;;;;;;;5.30;3.67;;;31.80;55.60;;;;;;4998953;28;20628;-83
2023/06/09 12:33:24;;;;;;;4.40;4.00;;;31.80;54.40;;;;;;4990429;28;20197;-79
2023/06/09 12:35:54;;;;;;;6.33;3.57;;;31.80;54.10;;;;;;4987337;28;20295;-78
2023/06/09 12:38:26;;;;;;;4.47;3.90;;;31.90;54.80;;;;;;5013385;28;20654;-79
2023/06/09 12:44:45;;;;;;;;;;;;;;;;;;;;;
2023/06/09 12:47:33;;;;;;;6.37;3.27;;;31.80;54.60;;;;;;4995526;28;20356;-79
2023/06/09 12:50:12;;;;;;;5.53;3.40;;;31.80;55.10;;;;;;4996272;28;20245;-79
2023/06/09 12:52:41;;;;;;;4.73;4.03;;;31.90;56.50;;;;;;4996588;28;20219;-80
2023/06/09 12:55:08;;;;;;;5.00;4.27;;;31.90;54.50;;;;;;4982664;28;20196;-81
2023/06/09 12:57:41;;;;;;;3.90;3.50;;;31.80;55.20;;;;;;4979693;28;20254;-80
2023/06/09 13:00:10;;;;;;;4.80;4.30;;;31.70;56.00;;;;;;4997062;28;20208;-80
2023/06/09 13:02:48;;;;;;;5.23;3.80;;;31.70;56.30;;;;;;4985584;28;20214;-80
2023/06/09 13:05:17;;;;;;;4.03;3.73;;;31.70;55.50;;;;;;4985720;28;20660;-82
2023/06/09 13:07:44;;;;;;;4.53;4.13;;;31.70;54.30;;;;;;4990264;28;20726;-80
2023/06/09 13:10:11;;;;;;;4.03;3.73;;;31.70;54.00;;;;;;4990836;28;20612;-79